Time;durP1;ratioP1;P1;durP2;ratioP2;P2;SDS_P1;SDS_P2;PMS_P1;PMS_P2;Temp;Humidity;BMP_temperature;BMP_pressure;BME280_temperature;BME280_humidity;BME280_pressure;Samples;Min_cycle;Max_cycle;Signal;HPM_P1;HPM_P2
2022/05/15 00:02:08;;;;;;;;;8.00;8.00;;;;;18.78;45.69;101487.00;5082718;27;45446;-68
2022/05/15 00:04:34;;;;;;;;;10.00;7.33;;;;;18.71;45.99;101478.63;5068638;28;45676;-68
2022/05/15 00:07:00;;;;;;;;;5.00;4.67;;;;;18.64;45.92;101464.75;5071933;27;46313;-68
2022/05/15 00:09:25;;;;;;;;;10.00;8.67;;;;;18.82;45.22;101477.34;5075272;27;45455;-68
2022/05/15 00:11:50;;;;;;;;;6.33;6.33;;;;;18.74;45.88;101466.41;5082516;27;45553;-68
2022/05/15 00:14:16;;;;;;;;;8.00;8.00;;;;;18.70;46.45;101470.59;5074524;27;45500;-68
2022/05/15 00:16:41;;;;;;;;;10.00;7.67;;;;;18.66;46.11;101467.31;5082452;27;45329;-68
2022/05/15 00:19:07;;;;;;;;;10.00;9.00;;;;;18.65;46.28;101460.97;5075619;27;45353;-68
2022/05/15 00:21:33;;;;;;;;;8.00;6.67;;;;;18.59;46.63;101456.19;5068801;27;45404;-68
2022/05/15 00:24:01;;;;;;;;;8.00;8.00;;;;;18.59;46.54;101455.34;5074965;28;45317;-68
2022/05/15 00:26:27;;;;;;;;;7.67;7.67;;;;;18.50;46.69;101451.75;5065402;27;47710;-69
2022/05/15 00:28:52;;;;;;;;;10.67;9.00;;;;;18.46;47.17;101455.06;5075037;27;45411;-69
2022/05/15 00:31:18;;;;;;;;;11.00;9.00;;;;;18.47;47.49;101456.78;5066099;27;45586;-68
2022/05/15 00:33:44;;;;;;;;;11.00;9.67;;;;;18.43;47.46;101456.28;5081476;28;45256;-69
2022/05/15 00:36:10;;;;;;;;;11.33;8.67;;;;;18.38;47.21;101452.38;5070987;27;46322;-68
2022/05/15 00:38:36;;;;;;;;;10.00;8.33;;;;;18.39;47.00;101443.94;5079961;28;45359;-69
2022/05/15 00:41:01;;;;;;;;;8.67;8.67;;;;;18.33;47.42;101447.41;5100400;27;45341;-67
2022/05/15 00:43:47;;;;;;;;;8.00;8.00;;;;;18.30;47.45;101447.75;5086555;28;45681;-69
2022/05/15 00:46:38;;;;;;;;;10.67;9.33;;;;;18.22;48.72;101437.66;5068787;27;45399;-68
2022/05/15 00:49:06;;;;;;;;;9.00;9.00;;;;;18.21;48.20;101446.97;5082664;28;45444;-68
2022/05/15 00:51:39;;;;;;;;;13.00;11.33;;;;;18.14;48.27;101442.34;5084970;27;45404;-67
2022/05/15 00:54:15;;;;;;;;;9.33;9.33;;;;;18.09;48.15;101431.06;5079787;28;45421;-67
2022/05/15 00:56:48;;;;;;;;;10.00;10.00;;;;;18.05;49.04;101435.19;5085304;27;46722;-67
2022/05/15 00:59:17;;;;;;;;;11.00;9.00;;;;;18.05;48.64;101440.69;5079707;27;45227;-67
2022/05/15 01:01:43;;;;;;;;;7.00;7.00;;;;;18.00;49.25;101429.38;5085577;27;45423;-68
2022/05/15 01:04:09;;;;;;;;;10.67;9.00;;;;;18.02;48.95;101436.41;5075612;27;45320;-67
2022/05/15 01:06:37;;;;;;;;;9.00;9.00;;;;;18.05;48.46;101427.78;5071462;27;46387;-69
2022/05/15 01:09:04;;;;;;;;;13.00;9.00;;;;;18.12;48.54;101423.28;5077513;27;45406;-67
2022/05/15 01:11:33;;;;;;;;;9.67;9.00;;;;;18.11;48.49;101429.84;5085045;27;45365;-67
2022/05/15 01:14:01;;;;;;;;;10.67;8.67;;;;;18.16;48.58;101426.53;5081702;27;45348;-67
2022/05/15 01:16:27;;;;;;;;;7.33;6.67;;;;;18.10;48.83;101419.88;5070503;27;45576;-67
2022/05/15 01:18:58;;;;;;;;;7.00;7.00;;;;;18.07;49.40;101414.72;5080075;27;45435;-67
2022/05/15 01:21:26;;;;;;;;;7.00;7.00;;;;;18.15;48.46;101425.69;5070136;27;45333;-67
2022/05/15 01:23:51;;;;;;;;;9.33;9.33;;;;;18.21;48.58;101421.34;5079997;28;45352;-67
2022/05/15 01:26:17;;;;;;;;;8.33;7.67;;;;;18.20;48.35;101411.38;5068802;27;45779;-67
2022/05/15 01:28:45;;;;;;;;;10.00;8.00;;;;;18.25;48.10;101411.72;5079431;27;45433;-67
2022/05/15 01:31:11;;;;;;;;;7.00;7.00;;;;;18.28;47.91;101420.44;5068172;27;45405;-67
2022/05/15 01:33:36;;;;;;;;;10.00;9.00;;;;;18.24;48.43;101419.09;5084082;27;45349;-67
2022/05/15 01:36:02;;;;;;;;;6.00;6.00;;;;;18.27;48.20;101412.34;5084738;27;45443;-67
2022/05/15 01:38:27;;;;;;;;;11.67;8.67;;;;;18.28;48.20;101416.81;5080814;28;45297;-67
2022/05/15 01:40:52;;;;;;;;;10.67;8.33;;;;;18.19;48.87;101409.69;5085206;27;45293;-67
2022/05/15 01:43:18;;;;;;;;;8.33;8.33;;;;;18.16;48.70;101408.16;5085362;27;45444;-67
2022/05/15 01:45:44;;;;;;;;;8.00;8.00;;;;;18.08;49.10;101410.09;5084880;28;45476;-68
2022/05/15 01:48:09;;;;;;;;;7.00;7.00;;;;;18.01;48.81;101400.84;5080461;27;45394;-67
2022/05/15 01:50:34;;;;;;;;;10.67;8.67;;;;;18.02;49.01;101410.81;5085385;27;45298;-67
2022/05/15 01:53:00;;;;;;;;;8.67;8.67;;;;;18.01;49.98;101406.34;5079287;27;45608;-67
2022/05/15 01:55:25;;;;;;;;;9.33;7.33;;;;;17.95;49.94;101398.84;5085216;27;46549;-67
2022/05/15 01:57:50;;;;;;;;;9.00;8.00;;;;;17.96;49.27;101397.81;5084170;27;45436;-67
2022/05/15 02:00:23;;;;;;;;;8.00;8.00;;;;;18.00;49.20;101400.00;5085266;28;45391;-67
2022/05/15 02:02:48;;;;;;;;;11.67;8.33;;;;;18.02;49.47;101400.69;5084851;27;47753;-68
2022/05/15 02:05:14;;;;;;;;;8.67;6.00;;;;;18.01;48.70;101398.09;5071709;27;48089;-69
2022/05/15 02:07:40;;;;;;;;;6.67;6.67;;;;;17.87;50.23;101395.09;5073804;27;45557;-68
2022/05/15 02:10:07;;;;;;;;;10.67;10.67;;;;;17.84;50.46;101389.94;5081925;28;46214;-67
2022/05/15 02:12:33;;;;;;;;;11.00;8.33;;;;;17.79;50.62;101389.63;5084675;27;45404;-67
2022/05/15 02:14:58;;;;;;;;;8.33;8.00;;;;;17.81;49.82;101373.81;5072087;27;46177;-67
2022/05/15 02:17:24;;;;;;;;;8.67;7.67;;;;;17.87;49.28;101378.59;5076385;27;45435;-66
2022/05/15 02:19:49;;;;;;;;;8.67;8.67;;;;;17.83;50.57;101368.13;5072163;27;46264;-67
2022/05/15 02:22:15;;;;;;;;;7.67;7.67;;;;;17.72;50.27;101369.41;5076364;27;45287;-66
2022/05/15 02:24:40;;;;;;;;;8.00;7.67;;;;;17.65;50.51;101367.56;5088157;27;47642;-67
2022/05/15 02:27:06;;;;;;;;;9.00;7.00;;;;;17.63;50.79;101364.13;5074251;27;45407;-66
2022/05/15 02:29:32;;;;;;;;;9.00;9.00;;;;;17.60;51.13;101359.81;5072461;27;45217;-67
2022/05/15 02:31:57;;;;;;;;;9.00;9.00;;;;;17.57;51.31;101357.41;5073623;27;45404;-67
2022/05/15 02:34:22;;;;;;;;;10.00;8.00;;;;;17.52;51.09;101363.47;5084466;27;45321;-66
2022/05/15 02:36:48;;;;;;;;;10.33;9.00;;;;;17.59;50.51;101355.34;5081301;27;45344;-67
2022/05/15 02:39:13;;;;;;;;;9.33;9.33;;;;;17.63;50.79;101353.97;5084576;27;45383;-67
2022/05/15 02:41:38;;;;;;;;;10.00;8.67;;;;;17.61;50.96;101358.78;5082185;27;45309;-66
2022/05/15 02:44:04;;;;;;;;;15.67;11.00;;;;;17.62;50.77;101362.41;5082225;27;45439;-67
2022/05/15 02:46:29;;;;;;;;;10.00;9.00;;;;;17.55;51.03;101355.88;5081596;27;45429;-66
2022/05/15 02:51:39;;;;;;;;;11.00;10.33;;;;;17.58;51.09;101378.38;5084162;27;45531;-66
2022/05/15 02:54:05;;;;;;;;;10.33;9.00;;;;;17.54;51.24;101382.50;5079664;27;45649;-67
2022/05/15 02:56:32;;;;;;;;;11.33;11.33;;;;;17.55;50.57;101381.47;5083010;27;45411;-67
2022/05/15 02:58:59;;;;;;;;;18.50;13.00;;;;;17.54;50.60;101388.00;5078591;28;45370;-67
2022/05/15 03:01:24;;;;;;;;;11.33;10.33;;;;;17.58;51.17;101385.75;5082678;27;45457;-67
2022/05/15 03:03:50;;;;;;;;;9.00;9.00;;;;;17.55;50.96;101392.44;5081001;28;48332;-66
2022/05/15 03:06:17;;;;;;;;;8.00;8.00;;;;;17.50;50.73;101387.50;5065079;27;45646;-67
2022/05/15 03:08:46;;;;;;;;;7.33;7.33;;;;;17.51;50.49;101382.88;5082559;28;45328;-67
2022/05/15 03:11:13;;;;;;;;;10.33;8.33;;;;;17.51;50.38;101382.88;5083462;27;45594;-67
2022/05/15 03:13:39;;;;;;;;;9.33;7.67;;;;;17.54;50.38;101371.50;5082088;28;45619;-67
2022/05/15 03:16:06;;;;;;;;;9.67;8.00;;;;;17.56;50.42;101358.44;5063683;27;45241;-66
2022/05/15 03:18:32;;;;;;;;;8.33;6.00;;;;;17.47;50.27;101359.50;5080870;27;45401;-69
2022/05/15 03:20:58;;;;;;;;;9.33;8.00;;;;;17.49;50.57;101358.31;5063125;27;45496;-67
2022/05/15 03:23:24;;;;;;;;;7.00;6.67;;;;;17.43;50.78;101358.19;5080153;28;47022;-67
2022/05/15 03:25:49;;;;;;;;;9.00;8.00;;;;;17.49;50.37;101358.31;5063233;28;45299;-67
2022/05/15 03:28:15;;;;;;;;;5.00;5.00;;;;;17.44;50.59;101360.75;5081222;27;45502;-66
2022/05/15 03:30:43;;;;;;;;;6.33;5.67;;;;;17.38;51.82;101357.88;5064031;28;45455;-66
2022/05/15 03:33:09;;;;;;;;;6.00;6.00;;;;;17.35;50.92;101360.94;5079393;27;47265;-66
2022/05/15 03:35:36;;;;;;;;;2.33;2.00;;;;;17.32;50.85;101351.16;5081304;28;45255;-66
2022/05/15 03:38:01;;;;;;;;;7.33;7.00;;;;;17.30;51.27;101345.00;5078808;27;45408;-67
2022/05/15 03:40:27;;;;;;;;;4.67;3.00;;;;;17.21;51.39;101336.97;5084076;27;45353;-67
2022/05/15 03:42:53;;;;;;;;;7.00;5.00;;;;;17.23;50.81;101338.53;5082667;27;45478;-66
2022/05/15 03:45:19;;;;;;;;;5.67;4.00;;;;;17.28;50.50;101341.59;5083364;28;45379;-67
2022/05/15 03:47:46;;;;;;;;;7.00;7.00;;;;;17.20;50.82;101333.38;5080684;27;45564;-67
2022/05/15 03:50:11;;;;;;;;;5.00;5.00;;;;;17.16;51.69;101342.16;5082074;28;45383;-67
2022/05/15 03:52:37;;;;;;;;;5.00;5.00;;;;;17.01;51.83;101336.53;5080216;27;45514;-67
2022/05/15 03:55:03;;;;;;;;;5.67;5.67;;;;;16.93;51.97;101334.66;5080555;28;45301;-67
2022/05/15 03:57:28;;;;;;;;;6.00;4.67;;;;;16.87;52.14;101337.25;5081152;27;45452;-67
2022/05/15 03:59:53;;;;;;;;;5.00;5.00;;;;;16.76;52.51;101338.47;5083619;28;45338;-67
2022/05/15 04:02:19;;;;;;;;;4.67;4.67;;;;;16.70;52.60;101337.28;5082535;27;45533;-67
2022/05/15 04:04:44;;;;;;;;;6.00;6.00;;;;;16.67;52.84;101328.53;5077959;27;45430;-67
2022/05/15 04:07:09;;;;;;;;;6.67;6.67;;;;;16.70;52.82;101328.19;5072466;27;45438;-67
2022/05/15 04:09:38;;;;;;;;;7.00;7.00;;;;;16.72;52.06;101320.66;5083619;27;45340;-67
2022/05/15 04:12:03;;;;;;;;;9.33;8.00;;;;;16.69;51.96;101321.00;5082010;27;45481;-67
2022/05/15 04:14:30;;;;;;;;;10.33;8.00;;;;;16.66;52.42;101335.03;5074315;27;45400;-67
2022/05/15 04:16:55;;;;;;;;;6.33;6.33;;;;;16.69;51.81;101326.47;5074901;27;45350;-67
2022/05/15 04:19:21;;;;;;;;;6.33;6.33;;;;;16.71;51.88;101333.50;5077946;27;45390;-67
2022/05/15 04:21:46;;;;;;;;;6.00;6.00;;;;;16.70;51.89;101333.69;5069904;27;48359;-67
2022/05/15 04:24:14;;;;;;;;;7.00;7.00;;;;;16.75;52.38;101339.50;5076883;28;45432;-67
2022/05/15 04:26:41;;;;;;;;;7.33;6.67;;;;;16.72;52.80;101346.19;5072414;27;45318;-67
2022/05/15 04:29:07;;;;;;;;;8.67;6.33;;;;;16.65;52.56;101334.22;5085445;27;45356;-67
2022/05/15 04:31:34;;;;;;;;;7.00;6.33;;;;;16.61;52.12;101335.56;5084517;27;47318;-67
2022/05/15 04:34:00;;;;;;;;;7.33;5.67;;;;;16.63;51.87;101327.19;5084023;28;45648;-67
2022/05/15 04:36:25;;;;;;;;;6.67;6.67;;;;;16.70;52.47;101328.19;5084089;27;45380;-67
2022/05/15 04:38:50;;;;;;;;;7.33;5.67;;;;;16.75;52.38;101336.75;5085027;27;45501;-68
2022/05/15 04:41:16;;;;;;;;;9.33;7.00;;;;;16.78;51.88;101324.56;5085594;27;45403;-68
2022/05/15 04:43:41;;;;;;;;;7.67;7.00;;;;;16.79;52.02;101316.19;5101413;27;45714;-67
2022/05/15 04:46:07;;;;;;;;;4.67;4.67;;;;;16.84;52.15;101313.75;5101467;27;45456;-66
2022/05/15 04:48:39;;;;;;;;;6.00;5.00;;;;;16.86;51.69;101321.81;5086303;27;45594;-67
2022/05/15 04:51:05;;;;;;;;;8.00;8.00;;;;;16.87;51.79;101318.91;5083090;27;46525;-67
2022/05/15 04:53:31;;;;;;;;;9.00;9.00;;;;;16.95;51.95;101318.03;5080610;27;45434;-67
2022/05/15 04:55:57;;;;;;;;;9.33;9.00;;;;;16.95;51.56;101327.09;5084470;27;45525;-67
2022/05/15 04:58:23;;;;;;;;;10.67;8.67;;;;;16.97;50.78;101324.16;5095786;27;45603;-68
2022/05/15 05:00:49;;;;;;;;;10.33;7.33;;;;;17.09;50.51;101328.28;5085883;27;45248;-67
2022/05/15 05:03:15;;;;;;;;;10.67;9.33;;;;;17.19;50.76;101345.38;5083156;27;45508;-67
2022/05/15 05:05:40;;;;;;;;;9.00;9.00;;;;;17.19;50.84;101342.63;5085795;27;45753;-67
2022/05/15 05:08:07;;;;;;;;;10.00;7.00;;;;;17.27;49.90;101339.00;5076633;27;45306;-67
2022/05/15 05:10:33;;;;;;;;;11.67;10.00;;;;;17.28;50.56;101336.09;5085306;27;45545;-67
2022/05/15 05:12:58;;;;;;;;;8.33;8.33;;;;;17.36;50.64;101340.69;5082345;27;45350;-67
2022/05/15 05:15:23;;;;;;;;;8.00;8.00;;;;;17.56;50.19;101332.88;5086045;27;45684;-67
2022/05/15 05:17:48;;;;;;;;;8.00;6.67;;;;;17.73;48.88;101332.63;5085265;27;45293;-67
2022/05/15 05:20:14;;;;;;;;;6.33;6.33;;;;;17.80;48.75;101338.25;5068831;27;45498;-67
2022/05/15 05:22:40;;;;;;;;;6.33;6.33;;;;;17.85;48.92;101342.19;5079922;27;45377;-67
2022/05/15 05:25:05;;;;;;;;;7.33;7.33;;;;;17.87;49.26;101344.75;5069282;28;45428;-67
2022/05/15 05:27:31;;;;;;;;;9.00;7.33;;;;;17.81;49.08;101349.09;5078493;27;45472;-67
2022/05/15 05:29:57;;;;;;;;;9.00;6.00;;;;;17.87;48.51;101345.59;5068964;27;46584;-67
2022/05/15 05:32:23;;;;;;;;;11.00;8.00;;;;;17.90;49.83;101344.38;5076316;27;45487;-67
2022/05/15 05:34:48;;;;;;;;;7.00;5.00;;;;;17.89;49.08;101342.69;5101055;27;45320;-67
2022/05/15 05:37:17;;;;;;;;;7.00;7.00;;;;;17.82;49.03;101339.81;5085055;27;45369;-67
2022/05/15 05:39:43;;;;;;;;;6.00;4.67;;;;;17.84;48.97;101337.72;5085355;27;45418;-67
2022/05/15 05:42:08;;;;;;;;;7.00;7.00;;;;;17.75;49.51;101336.03;5084410;27;45673;-67
2022/05/15 05:44:34;;;;;;;;;11.67;10.33;;;;;17.70;49.71;101343.97;5097762;27;45537;-67
2022/05/15 05:46:59;;;;;;;;;7.67;6.00;;;;;17.72;49.42;101344.66;5073974;27;45297;-67
2022/05/15 05:49:24;;;;;;;;;8.00;8.00;;;;;17.76;49.20;101347.91;5078992;28;45611;-67
2022/05/15 05:51:50;;;;;;;;;8.00;8.00;;;;;17.87;49.04;101348.34;5082349;27;45770;-68
2022/05/15 05:54:15;;;;;;;;;9.00;9.00;;;;;18.19;48.62;101346.44;5078766;27;45448;-68
2022/05/15 05:56:40;;;;;;;;;5.33;5.33;;;;;18.17;48.39;101340.25;5083627;27;45543;-68
2022/05/15 05:59:06;;;;;;;;;5.33;5.00;;;;;18.08;48.32;101333.94;5077432;28;45374;-70
2022/05/15 06:01:31;;;;;;;;;9.67;8.33;;;;;18.21;48.15;101341.59;5084320;27;45371;-68
2022/05/15 06:06:40;;;;;;;;;8.00;6.33;;;;;18.54;47.71;101326.53;5071028;27;45408;-68
2022/05/15 06:09:05;;;;;;;;;10.33;9.33;;;;;18.66;47.30;101336.06;5091318;27;46704;-68
2022/05/15 06:11:31;;;;;;;;;8.67;7.33;;;;;18.70;47.24;101319.19;5083415;27;45454;-68
2022/05/15 06:13:56;;;;;;;;;9.00;9.00;;;;;18.99;46.59;101330.22;5080912;28;45499;-68
2022/05/15 06:16:22;;;;;;;;;7.33;7.33;;;;;19.13;46.87;101328.53;5068263;27;45325;-68
2022/05/15 06:18:47;;;;;;;;;8.67;8.67;;;;;19.24;46.08;101328.88;5096443;27;46202;-68
2022/05/15 06:21:13;;;;;;;;;10.00;10.00;;;;;19.36;45.89;101334.75;5082701;27;45444;-68
2022/05/15 06:23:38;;;;;;;;;7.67;7.67;;;;;19.53;46.02;101327.16;5080773;27;45239;-68
2022/05/15 06:26:04;;;;;;;;;11.33;9.67;;;;;19.50;45.99;101333.09;5064202;27;45419;-68
2022/05/15 06:28:29;;;;;;;;;8.00;8.00;;;;;19.71;45.82;101327.63;5080618;27;46012;-68
2022/05/15 06:30:56;;;;;;;;;8.00;6.00;;;;;19.98;44.62;101329.63;5063835;27;45483;-68
2022/05/15 06:33:21;;;;;;;;;7.00;6.00;;;;;20.14;44.32;101317.47;5082775;27;45401;-68
2022/05/15 06:35:46;;;;;;;;;6.00;6.00;;;;;20.23;44.53;101324.59;5084304;27;45267;-68
2022/05/15 06:38:12;;;;;;;;;6.00;5.67;;;;;20.31;44.04;101331.88;5078832;27;46133;-71
2022/05/15 06:40:38;;;;;;;;;6.00;6.00;;;;;19.93;44.71;101323.84;5084083;28;45386;-69
2022/05/15 06:43:04;;;;;;;;;10.00;7.00;;;;;20.06;44.96;101339.69;5078578;27;45318;-67
2022/05/15 06:45:29;;;;;;;;;6.67;5.33;;;;;20.20;44.26;101336.00;5084406;27;45364;-68
2022/05/15 06:47:54;;;;;;;;;6.33;6.00;;;;;20.20;44.39;101324.97;5082742;27;45457;-68
2022/05/15 06:50:20;;;;;;;;;7.67;6.67;;;;;20.18;44.42;101324.31;5083552;28;45392;-68
2022/05/15 06:52:45;;;;;;;;;7.00;6.00;;;;;20.20;43.93;101336.84;5083457;27;45427;-68
2022/05/15 06:55:15;;;;;;;;;6.67;6.00;;;;;20.12;44.90;101339.75;5072326;27;45338;-67
2022/05/15 06:57:42;;;;;;;;;7.33;6.00;;;;;20.12;44.28;101341.66;5074359;27;47027;-67
2022/05/15 07:00:08;;;;;;;;;8.33;6.33;;;;;20.14;44.63;101342.31;5083302;27;45261;-67
2022/05/15 07:02:33;;;;;;;;;7.33;7.00;;;;;20.20;44.72;101339.63;5078977;27;45308;-66
2022/05/15 07:04:59;;;;;;;;;8.00;8.00;;;;;20.30;44.81;101335.69;5069202;28;45588;-67
2022/05/15 07:07:25;;;;;;;;;8.00;6.00;;;;;20.34;44.23;101331.50;5073631;27;47235;-67
2022/05/15 07:09:50;;;;;;;;;7.33;6.33;;;;;20.47;43.96;101335.22;5070816;28;45450;-67
2022/05/15 07:12:16;;;;;;;;;5.67;5.67;;;;;20.60;43.55;101326.22;5074366;27;45427;-66
2022/05/15 07:14:41;;;;;;;;;7.67;7.67;;;;;20.86;43.29;101323.66;5073119;27;45324;-68
2022/05/15 07:17:07;;;;;;;;;7.67;7.67;;;;;21.10;42.28;101310.44;5072396;27;45544;-67
2022/05/15 07:19:33;;;;;;;;;5.00;5.00;;;;;21.31;42.00;101302.91;5072881;27;45461;-67
2022/05/15 07:21:58;;;;;;;;;5.33;5.33;;;;;21.52;41.37;101301.09;5071314;27;45385;-66
2022/05/15 07:24:24;;;;;;;;;8.67;5.00;;;;;21.71;41.77;101290.09;5073844;27;45335;-68
2022/05/15 07:26:51;;;;;;;;;7.33;6.33;;;;;21.84;41.05;101288.44;5070043;27;46831;-67
2022/05/15 07:29:17;;;;;;;;;7.00;6.67;;;;;21.86;40.25;101300.13;5081988;27;45407;-66
2022/05/15 07:31:44;;;;;;;;;5.00;5.00;;;;;21.83;40.88;101281.19;5081772;27;45277;-67
2022/05/15 07:34:10;;;;;;;;;6.00;6.00;;;;;21.83;40.68;101279.28;5082538;27;45437;-67
2022/05/15 07:36:35;;;;;;;;;7.00;7.00;;;;;21.87;40.93;101279.69;5080209;27;45420;-67
2022/05/15 07:39:02;;;;;;;;;8.67;7.00;;;;;21.91;40.52;101269.94;5096484;27;45356;-67
2022/05/15 07:41:28;;;;;;;;;5.00;4.33;;;;;21.92;40.30;101271.63;5082311;27;45919;-67
2022/05/15 07:43:54;;;;;;;;;4.67;3.67;;;;;21.99;40.26;101267.00;5098818;27;45394;-67
2022/05/15 07:46:19;;;;;;;;;7.67;6.67;;;;;22.12;40.06;101272.56;5079578;27;48194;-67
2022/05/15 07:48:44;;;;;;;;;5.00;5.00;;;;;22.29;40.09;101275.75;5081062;28;45441;-68
2022/05/15 07:51:10;;;;;;;;;4.00;4.00;;;;;22.46;39.47;101269.56;5068504;27;45653;-68
2022/05/15 07:53:38;;;;;;;;;6.67;6.67;;;;;22.63;38.87;101266.38;5078392;27;45315;-68
2022/05/15 07:56:09;;;;;;;;;5.00;3.67;;;;;22.90;37.98;101262.53;5081920;27;45487;-67
2022/05/15 07:58:35;;;;;;;;;3.33;3.33;;;;;23.09;37.96;101257.97;5081732;27;45809;-68
2022/05/15 08:01:04;;;;;;;;;4.00;4.00;;;;;23.20;37.55;101244.31;5080790;27;45277;-68
2022/05/15 08:03:33;;;;;;;;;6.67;4.00;;;;;23.25;37.23;101241.72;5082609;28;45519;-68
2022/05/15 08:08:43;;;;;;;;;3.00;3.00;;;;;23.74;36.77;101251.34;5073247;28;45329;-68
2022/05/15 08:11:08;;;;;;;;;6.00;3.00;;;;;23.99;36.18;101248.59;5082099;27;45308;-68
2022/05/15 08:13:34;;;;;;;;;7.67;4.33;;;;;24.20;35.81;101245.47;5081627;27;45254;-69
2022/05/15 08:15:59;;;;;;;;;8.33;8.33;;;;;24.33;35.52;101233.38;5060417;27;47356;-68
2022/05/15 08:23:56;;;;;;;;;5.00;4.67;;;;;24.67;34.26;101221.75;5076563;28;45284;-68
2022/05/15 08:26:23;;;;;;;;;2.33;2.33;;;;;24.90;33.96;101209.13;5065089;27;46295;-68
2022/05/15 08:28:49;;;;;;;;;2.00;2.00;;;;;24.99;33.04;101207.72;5075751;27;45257;-68
2022/05/15 08:31:17;;;;;;;;;4.00;4.00;;;;;25.05;33.30;101195.72;5063086;27;45401;-68
2022/05/15 08:33:43;;;;;;;;;5.00;3.67;;;;;25.18;32.92;101201.94;5078966;28;45706;-68
2022/05/15 08:36:09;;;;;;;;;4.67;4.33;;;;;25.09;32.28;101208.91;5070568;27;46282;-68
2022/05/15 08:38:36;;;;;;;;;1.00;1.00;;;;;25.14;32.41;101205.41;5080067;28;45325;-68
2022/05/15 08:41:10;;;;;;;;;3.33;3.33;;;;;25.29;32.65;101210.56;5082092;27;45492;-68
2022/05/15 08:43:49;;;;;;;;;2.67;2.67;;;;;25.19;33.07;101200.03;5076979;28;45243;-68
2022/05/15 08:46:53;;;;;;;;;3.33;3.00;;;;;25.21;32.63;101197.84;5079998;27;47374;-69
2022/05/15 08:49:31;;;;;;;;;2.67;2.67;;;;;25.41;32.49;101198.44;5075028;27;45523;-68
2022/05/15 08:52:13;;;;;;;;;4.33;4.00;;;;;25.65;31.37;101192.97;5081576;27;45458;-68
2022/05/15 08:54:53;;;;;;;;;4.00;3.00;;;;;25.83;31.77;101182.63;5080941;28;45211;-67
2022/05/15 08:57:44;;;;;;;;;3.67;3.67;;;;;26.05;31.09;101180.13;5095575;27;45282;-67
2022/05/15 09:00:13;;;;;;;;;3.67;3.67;;;;;26.12;30.86;101180.88;5059448;28;45344;-68
2022/05/15 09:02:40;;;;;;;;;5.33;4.00;;;;;26.23;30.17;101177.22;5073788;27;45397;-67
2022/05/15 09:05:06;;;;;;;;;3.00;3.00;;;;;26.40;29.93;101180.19;5071184;28;45518;-67
2022/05/15 09:08:12;;;;;;;;;5.33;3.33;;;;;26.77;29.97;101179.94;5076308;27;47880;-67
2022/05/15 09:10:47;;;;;;;;;4.67;4.00;;;;;27.11;29.77;101165.91;5046674;28;45340;-67
2022/05/15 09:13:36;;;;;;;;;3.33;3.33;;;;;27.21;28.91;101170.03;5084766;27;45381;-67
2022/05/15 09:16:03;;;;;;;;;4.00;4.00;;;;;27.42;28.12;101177.69;5066034;27;45429;-67
2022/05/15 09:18:33;;;;;;;;;3.00;3.00;;;;;27.47;28.50;101175.84;5081105;27;46295;-67
2022/05/15 09:21:07;;;;;;;;;4.00;4.00;;;;;27.54;28.63;101180.50;5065109;27;45342;-68
2022/05/15 09:23:37;;;;;;;;;1.33;1.33;;;;;27.52;27.39;101180.69;5082225;27;45444;-67
2022/05/15 09:26:05;;;;;;;;;2.00;2.00;;;;;27.40;26.86;101179.88;5065956;27;45516;-68
2022/05/15 09:28:41;;;;;;;;;3.00;3.00;;;;;27.48;27.06;101160.81;5084186;28;46331;-67
2022/05/15 09:31:22;;;;;;;;;2.67;2.00;;;;;27.68;27.11;101168.78;5084520;27;45329;-68
2022/05/15 09:34:03;;;;;;;;;3.00;3.00;;;;;27.97;26.86;101168.72;5084303;28;45389;-67
2022/05/15 09:36:34;;;;;;;;;4.33;2.00;;;;;28.16;26.94;101164.59;5082867;27;45509;-67
2022/05/15 09:39:14;;;;;;;;;3.00;3.00;;;;;28.34;26.15;101169.94;5082824;27;46251;-68
2022/05/15 09:44:27;;;;;;;;;3.00;2.00;;;;;28.77;25.92;101152.41;5085188;28;45674;-67
2022/05/15 09:47:03;;;;;;;;;3.00;3.00;;;;;29.04;26.14;101144.09;5084926;27;45630;-68
2022/05/15 09:49:32;;;;;;;;;3.00;3.00;;;;;29.18;26.43;101136.13;5071078;28;45257;-68
2022/05/15 09:52:01;;;;;;;;;1.67;1.67;;;;;29.31;24.73;101142.16;5067728;27;45346;-67
2022/05/15 09:54:36;;;;;;;;;2.00;2.00;;;;;29.29;24.78;101147.19;5075868;28;45309;-67
2022/05/15 09:57:07;;;;;;;;;3.00;1.67;;;;;29.57;24.38;101148.06;5082741;27;45637;-68
2022/05/15 09:59:32;;;;;;;;;7.67;5.00;;;;;29.68;24.89;101133.03;5078715;27;45361;-68
2022/05/15 10:01:58;;;;;;;;;2.67;2.67;;;;;30.00;24.57;101133.94;5072077;27;45362;-68
2022/05/15 10:04:31;;;;;;;;;2.00;2.00;;;;;30.29;24.11;101136.41;5086416;27;45652;-68
2022/05/15 10:07:06;;;;;;;;;2.00;2.00;;;;;30.41;24.18;101123.00;5073117;27;45305;-68
2022/05/15 10:09:34;;;;;;;;;2.33;2.33;;;;;30.31;23.45;101126.63;5075376;28;45469;-68
2022/05/15 10:12:17;;;;;;;;;9.25;9.00;;;;;30.14;23.92;101123.97;5073706;27;45443;-68
2022/05/15 10:14:49;;;;;;;;;12.00;6.67;;;;;30.14;24.52;101112.75;5075789;27;45280;-68
2022/05/15 10:17:15;;;;;;;;;5.33;4.00;;;;;30.13;23.78;101111.06;5075696;27;45505;-68
2022/05/15 10:19:55;;;;;;;;;4.33;4.33;;;;;29.95;23.59;101117.09;5072201;28;46044;-68
2022/05/15 10:22:54;;;;;;;;;3.00;3.00;;;;;29.99;23.05;101106.19;5075838;27;45400;-68
2022/05/15 10:25:28;;;;;;;;;2.00;2.00;;;;;30.12;22.68;101102.91;5063539;28;45618;-67
2022/05/15 10:28:12;;;;;;;;;3.67;2.33;;;;;30.43;22.77;101093.59;5080240;27;45380;-69
2022/05/15 10:31:04;;;;;;;;;3.67;2.00;;;;;30.90;22.21;101087.94;5079264;27;47260;-68
2022/05/15 10:33:36;;;;;;;;;2.67;2.67;;;;;31.08;22.59;101074.56;5069349;27;45726;-68
2022/05/15 10:36:14;;;;;;;;;3.00;3.00;;;;;31.53;21.62;101088.69;5064382;27;45324;-67
2022/05/15 10:38:48;;;;;;;;;3.33;3.33;;;;;31.61;21.81;101088.19;5070159;27;45657;-68
2022/05/15 10:41:19;;;;;;;;;5.33;5.33;;;;;31.45;21.00;101086.44;5068103;27;45398;-68
2022/05/15 10:43:53;;;;;;;;;4.00;4.00;;;;;31.85;21.40;101082.00;5066949;27;45348;-68
2022/05/15 10:46:39;;;;;;;;;6.00;4.33;;;;;31.95;21.00;101087.59;5066104;27;45459;-68
2022/05/15 10:49:23;;;;;;;;;3.00;3.00;;;;;31.82;21.10;101077.78;5066572;28;46032;-68
2022/05/15 10:52:00;;;;;;;;;7.67;6.33;;;;;31.76;21.56;101075.25;5066513;27;47106;-68
2022/05/15 10:57:45;;;;;;;;;3.67;3.67;;;;;31.86;21.88;101059.22;5068131;27;45426;-68
2022/05/15 11:00:26;;;;;;;;;3.33;3.33;;;;;32.45;21.36;101067.84;5066238;28;45424;-68
2022/05/15 11:03:29;;;;;;;;;2.00;2.00;;;;;32.89;20.65;101058.69;5080877;27;45524;-68
2022/05/15 11:06:14;;;;;;;;;3.33;3.00;;;;;32.82;20.06;101049.72;5065669;28;45450;-68
2022/05/15 11:08:48;;;;;;;;;4.00;3.00;;;;;33.16;20.13;101058.28;5065580;28;45322;-68
2022/05/15 11:11:26;;;;;;;;;3.33;3.33;;;;;32.54;21.06;101068.13;5067433;27;45488;-68
2022/05/15 11:14:22;;;;;;;;;7.00;7.00;;;;;32.77;20.56;101063.84;5065954;28;45374;-68
2022/05/15 11:17:06;;;;;;;;;4.67;4.33;;;;;32.82;20.05;101053.38;5067381;27;45365;-68
2022/05/15 11:19:44;;;;;;;;;3.67;3.67;;;;;33.21;20.13;101049.81;5064686;28;45547;-67
2022/05/15 11:22:33;;;;;;;;;5.33;3.33;;;;;33.66;19.97;101054.28;5071514;27;45483;-67
2022/05/15 11:25:08;;;;;;;;;6.00;5.00;;;;;33.68;19.49;101048.34;5065573;28;47720;-67
2022/05/15 11:27:40;;;;;;;;;7.00;5.33;;;;;33.52;18.78;101047.63;5067551;27;45427;-67
2022/05/15 11:30:25;;;;;;;;;5.00;4.00;;;;;33.61;19.27;101043.03;5065241;27;45464;-67
2022/05/15 11:32:53;;;;;;;;;2.00;2.00;;;;;33.69;19.15;101038.75;5067171;27;45479;-68
2022/05/15 11:35:22;;;;;;;;;4.00;4.00;;;;;33.55;18.38;101039.41;5065840;28;45579;-67
2022/05/15 11:37:56;;;;;;;;;2.00;2.00;;;;;33.69;18.96;101031.13;5068838;27;45565;-67
2022/05/15 11:40:42;;;;;;;;;3.67;3.67;;;;;33.92;18.63;101021.91;5078855;28;45437;-68
2022/05/15 11:43:26;;;;;;;;;5.67;4.33;;;;;34.00;18.89;101024.09;5071273;27;45447;-68
2022/05/15 11:45:53;;;;;;;;;5.33;4.00;;;;;34.28;19.42;101008.31;5064465;28;46355;-68
2022/05/15 11:48:27;;;;;;;;;2.67;1.67;;;;;34.71;18.88;101017.63;5071374;27;45913;-68
2022/05/15 11:50:55;;;;;;;;;3.33;3.00;;;;;34.86;18.30;101015.75;5066442;28;45204;-68
2022/05/15 11:53:28;;;;;;;;;2.00;2.00;;;;;34.88;17.53;101017.16;5072150;27;45404;-68